createdAt,value
2017-10-19T00:00:58.209Z,13.27
2017-10-19T00:03:25.772Z,15.65
2017-10-19T00:05:53.292Z,13.70
2017-10-19T00:08:20.821Z,16.98
2017-10-19T00:10:48.378Z,11.80
2017-10-19T00:13:15.903Z,13.35
2017-10-19T00:15:43.445Z,13.50
2017-10-19T00:18:11.009Z,14.50
2017-10-19T00:20:38.566Z,12.77
2017-10-19T00:23:06.097Z,14.68
2017-10-19T00:25:34.410Z,12.48
2017-10-19T00:28:01.951Z,13.43
2017-10-19T00:30:30.267Z,13.68
2017-10-19T00:32:57.786Z,12.05
2017-10-19T00:35:26.093Z,13.20
2017-10-19T00:37:53.645Z,10.38
2017-10-19T00:40:21.206Z,14.27
2017-10-19T00:42:48.726Z,12.15
2017-10-19T00:45:17.037Z,10.85
2017-10-19T00:47:45.346Z,13.23
2017-10-19T00:50:12.869Z,11.40
2017-10-19T00:52:41.281Z,10.85
2017-10-19T00:55:08.809Z,12.82
2017-10-19T00:57:37.127Z,12.57
2017-10-19T01:00:04.753Z,10.18
2017-10-19T01:02:32.285Z,15.88
2017-10-19T01:05:00.599Z,10.93
2017-10-19T01:07:28.121Z,13.55
2017-10-19T01:09:56.488Z,17.62
2017-10-19T01:12:24.034Z,11.10
2017-10-19T01:14:51.573Z,13.52
2017-10-19T01:17:19.109Z,13.13
2017-10-19T01:19:46.681Z,14.35
2017-10-19T01:22:14.205Z,13.98
2017-10-19T01:24:41.771Z,10.50
2017-10-19T01:27:09.298Z,12.77
2017-10-19T01:29:37.601Z,13.57
2017-10-19T01:32:05.157Z,15.60
2017-10-19T01:34:33.450Z,15.73
2017-10-19T01:37:00.994Z,11.68
2017-10-19T01:39:28.545Z,12.95
2017-10-19T01:41:56.861Z,10.82
2017-10-19T01:44:24.389Z,13.07
2017-10-19T01:46:51.977Z,14.50
2017-10-19T01:49:19.509Z,15.63
2017-10-19T01:51:47.063Z,13.52
2017-10-19T01:54:15.355Z,13.23
2017-10-19T01:56:42.877Z,12.65
2017-10-19T01:59:10.413Z,16.62
2017-10-19T02:01:37.966Z,16.17
2017-10-19T02:04:05.517Z,14.00
2017-10-19T02:06:33.074Z,15.15
2017-10-19T02:09:00.633Z,14.27
2017-10-19T02:11:28.161Z,10.80
2017-10-19T02:13:56.494Z,11.40
2017-10-19T02:16:24.041Z,14.57
2017-10-19T02:18:51.597Z,16.58
2017-10-19T02:21:19.129Z,13.13
2017-10-19T02:23:46.671Z,16.20
2017-10-19T02:26:14.984Z,13.13
2017-10-19T02:28:42.561Z,17.02
2017-10-19T02:31:10.084Z,15.98
2017-10-19T02:33:37.624Z,14.27
2017-10-19T02:36:05.934Z,15.25
2017-10-19T02:38:33.479Z,14.43
2017-10-19T02:41:01.036Z,11.88
2017-10-19T02:43:28.560Z,17.25
2017-10-19T02:45:56.108Z,15.10
2017-10-19T02:48:23.643Z,16.35
2017-10-19T02:50:51.185Z,19.08
2017-10-19T02:53:18.722Z,17.37
2017-10-19T02:55:47.144Z,19.25
2017-10-19T02:58:14.669Z,13.95
2017-10-19T03:00:42.220Z,15.98
2017-10-19T03:03:10.514Z,14.13
2017-10-19T03:05:38.102Z,14.55
2017-10-19T03:08:05.630Z,14.13
2017-10-19T03:10:33.158Z,20.33
2017-10-19T03:13:00.711Z,20.23
2017-10-19T03:15:28.237Z,19.60
2017-10-19T03:17:55.784Z,19.65
2017-10-19T03:20:23.313Z,18.00
2017-10-19T03:22:50.852Z,17.83
2017-10-19T03:25:18.384Z,17.80
2017-10-19T03:27:46.697Z,17.42
2017-10-19T03:30:14.225Z,17.10
2017-10-19T03:32:42.545Z,19.15
2017-10-19T03:35:10.119Z,17.55
2017-10-19T03:37:37.932Z,17.73
2017-10-19T03:40:05.502Z,16.15
2017-10-19T03:42:33.800Z,16.25
2017-10-19T03:45:01.341Z,19.25
2017-10-19T03:47:28.880Z,15.68
2017-10-19T03:49:56.449Z,20.90
2017-10-19T03:52:24.750Z,20.70
2017-10-19T03:54:53.084Z,22.83
2017-10-19T03:57:21.413Z,20.55
2017-10-19T03:59:49.149Z,21.35
2017-10-19T04:02:17.296Z,20.40
2017-10-19T04:04:44.830Z,22.45
2017-10-19T04:07:12.445Z,15.27
2017-10-19T04:09:40.084Z,21.83
2017-10-19T04:12:07.657Z,19.17
2017-10-19T04:14:35.583Z,20.37
2017-10-19T04:17:03.117Z,19.15
2017-10-19T04:19:30.681Z,21.65
2017-10-19T04:21:58.234Z,17.60
2017-10-19T04:24:25.793Z,19.20
2017-10-19T04:26:53.383Z,19.08
2017-10-19T04:29:21.683Z,16.27
2017-10-19T04:31:49.269Z,15.68
2017-10-19T04:34:16.801Z,25.23
2017-10-19T04:36:44.363Z,29.80
2017-10-19T04:39:12.667Z,21.90
2017-10-19T04:41:40.316Z,22.87
2017-10-19T04:44:07.872Z,15.82
2017-10-19T04:46:35.436Z,19.75
2017-10-19T04:49:02.973Z,22.55
2017-10-19T04:51:31.300Z,24.27
2017-10-19T04:53:58.849Z,19.98
2017-10-19T04:56:26.412Z,21.48
2017-10-19T04:58:53.976Z,24.25
2017-10-19T05:01:21.504Z,20.12
2017-10-19T05:03:49.033Z,21.52
2017-10-19T05:06:16.602Z,22.80
2017-10-19T05:08:44.902Z,21.42
2017-10-19T05:11:12.478Z,25.62
2017-10-19T05:13:40.041Z,24.92
2017-10-19T05:16:07.589Z,21.35
2017-10-19T05:18:35.135Z,21.83
2017-10-19T05:21:03.438Z,20.60
2017-10-19T05:23:30.998Z,30.45
2017-10-19T05:25:58.528Z,32.55
2017-10-19T05:28:26.868Z,31.08
2017-10-19T05:30:54.406Z,30.40
2017-10-19T05:33:21.966Z,29.00
2017-10-19T05:35:49.606Z,22.90
2017-10-19T05:38:17.194Z,28.48
2017-10-19T05:40:45.508Z,24.70
2017-10-19T05:43:13.057Z,26.55
2017-10-19T05:45:40.617Z,29.20
2017-10-19T05:48:08.146Z,27.30
2017-10-19T05:50:36.489Z,22.60
2017-10-19T05:53:04.026Z,23.80
2017-10-19T05:55:31.578Z,22.45
2017-10-19T05:57:59.112Z,23.83
2017-10-19T06:00:27.445Z,20.02
2017-10-19T06:02:55.122Z,28.77
2017-10-19T06:05:22.672Z,33.10
2017-10-19T06:07:50.214Z,26.40
2017-10-19T06:10:17.760Z,26.50
2017-10-19T06:12:45.305Z,31.15
2017-10-19T06:15:12.840Z,26.35
2017-10-19T06:17:40.400Z,26.83
2017-10-19T06:20:08.738Z,25.98
2017-10-19T06:22:36.285Z,31.85
2017-10-19T06:25:03.824Z,26.25
2017-10-19T06:27:31.377Z,26.15
2017-10-19T06:29:59.688Z,25.65
2017-10-19T06:32:27.220Z,26.70
2017-10-19T06:34:54.775Z,36.25
2017-10-19T06:37:23.101Z,23.40
2017-10-19T06:39:50.656Z,26.30
2017-10-19T06:42:18.193Z,25.83
2017-10-19T06:44:46.593Z,26.00
2017-10-19T06:47:14.137Z,31.02
2017-10-19T06:49:41.699Z,27.52
2017-10-19T06:52:09.237Z,27.20
2017-10-19T06:54:36.805Z,24.08
2017-10-19T06:57:04.350Z,29.45
2017-10-19T06:59:32.660Z,24.55
2017-10-19T07:02:00.217Z,24.55
2017-10-19T07:04:27.784Z,23.73
2017-10-19T07:06:55.341Z,27.40
2017-10-19T07:09:22.897Z,22.30
2017-10-19T07:11:50.460Z,22.20
2017-10-19T07:14:18.017Z,23.65
2017-10-19T07:16:45.588Z,24.90
2017-10-19T07:19:13.153Z,22.25
2017-10-19T07:21:40.811Z,26.30
2017-10-19T07:24:08.354Z,24.87
2017-10-19T07:26:35.901Z,23.90
2017-10-19T07:29:03.461Z,25.15
2017-10-19T07:31:30.997Z,27.10
2017-10-19T07:33:59.324Z,21.20
2017-10-19T07:36:26.849Z,26.97
2017-10-19T07:38:55.169Z,25.60
2017-10-19T07:41:22.694Z,28.03
2017-10-19T07:43:50.245Z,27.17
2017-10-19T07:46:17.782Z,27.50
2017-10-19T07:48:46.082Z,28.20
2017-10-19T07:51:14.398Z,27.67
2017-10-19T07:53:41.934Z,26.60
2017-10-19T07:56:09.492Z,25.90
2017-10-19T07:58:37.049Z,27.13
2017-10-19T08:01:04.614Z,22.10
2017-10-19T08:03:32.151Z,26.20
2017-10-19T08:06:00.478Z,23.23
2017-10-19T08:08:28.013Z,25.97
2017-10-19T08:10:55.613Z,27.90
2017-10-19T08:13:23.161Z,24.20
2017-10-19T08:15:50.714Z,25.60
2017-10-19T08:18:18.274Z,21.43
2017-10-19T08:20:45.822Z,18.77
2017-10-19T08:23:13.387Z,20.57
2017-10-19T08:25:40.945Z,20.63
2017-10-19T08:28:08.520Z,23.07
2017-10-19T08:30:36.056Z,28.97
2017-10-19T08:33:03.593Z,21.17
2017-10-19T08:35:31.148Z,20.00
2017-10-19T08:37:58.683Z,20.87
2017-10-19T08:40:26.248Z,20.10
2017-10-19T08:42:53.774Z,17.40
2017-10-19T08:45:22.088Z,16.87
2017-10-19T08:47:49.618Z,17.73
2017-10-19T08:50:17.948Z,16.20
2017-10-19T08:52:45.484Z,19.30
2017-10-19T08:55:13.038Z,16.07
2017-10-19T08:57:41.473Z,15.90
2017-10-19T09:00:09.798Z,17.53
2017-10-19T09:02:37.340Z,14.93
2017-10-19T09:05:04.899Z,14.03
2017-10-19T09:07:32.444Z,18.07
2017-10-19T09:10:00.768Z,11.93
2017-10-19T09:12:28.306Z,16.33
2017-10-19T09:14:55.857Z,11.33
2017-10-19T09:17:23.390Z,11.73
2017-10-19T09:19:50.996Z,10.10
2017-10-19T09:22:18.556Z,12.13
2017-10-19T09:24:46.220Z,10.00
2017-10-19T09:27:13.765Z,10.13
2017-10-19T09:29:41.293Z,9.27
2017-10-19T09:32:09.605Z,10.00
2017-10-19T09:34:37.157Z,10.10
2017-10-19T09:37:04.717Z,9.93
2017-10-19T09:39:32.241Z,8.97
2017-10-19T09:42:00.556Z,10.10
2017-10-19T09:44:28.125Z,11.20
2017-10-19T09:46:55.674Z,10.23
2017-10-19T09:49:23.224Z,10.90
2017-10-19T09:51:50.774Z,10.90
2017-10-19T09:54:18.325Z,9.77
2017-10-19T09:56:45.910Z,10.73
2017-10-19T09:59:13.459Z,10.13
2017-10-19T10:01:41.034Z,11.17
2017-10-19T10:04:08.570Z,10.00
2017-10-19T10:06:36.130Z,10.93
2017-10-19T10:09:04.453Z,10.70
2017-10-19T10:11:31.999Z,12.67
2017-10-19T10:13:59.573Z,11.43
2017-10-19T10:16:27.121Z,11.03
2017-10-19T10:18:54.665Z,9.97
2017-10-19T10:21:22.217Z,11.33
2017-10-19T10:23:49.782Z,9.73
2017-10-19T10:26:17.313Z,10.40
2017-10-19T10:28:45.613Z,6.20
2017-10-19T10:31:13.196Z,7.50
2017-10-19T10:33:40.749Z,6.23
2017-10-19T10:36:08.317Z,6.77
2017-10-19T10:38:35.852Z,6.87
2017-10-19T10:41:03.391Z,7.20
2017-10-19T10:43:30.950Z,8.57
2017-10-19T10:45:58.481Z,6.60
2017-10-19T10:48:27.513Z,6.97
2017-10-19T10:50:55.075Z,6.43
2017-10-19T10:53:22.608Z,8.00
2017-10-19T10:55:50.933Z,8.37
2017-10-19T10:58:18.476Z,6.83
2017-10-19T11:00:46.152Z,5.43
2017-10-19T11:03:13.684Z,4.43
2017-10-19T11:05:41.243Z,5.00
2017-10-19T11:08:08.789Z,4.70
2017-10-19T11:10:37.073Z,4.20
2017-10-19T11:13:06.323Z,5.17
2017-10-19T11:15:33.853Z,5.20
2017-10-19T11:18:02.908Z,4.57
2017-10-19T11:20:30.445Z,4.13
2017-10-19T11:22:58.004Z,4.13
2017-10-19T11:25:25.538Z,4.10
2017-10-19T11:27:53.862Z,6.20
2017-10-19T11:30:21.381Z,6.10
2017-10-19T11:32:49.682Z,5.70
2017-10-19T11:35:18.005Z,4.87
2017-10-19T11:37:45.533Z,5.87
2017-10-19T11:40:13.079Z,6.00
2017-10-19T11:42:41.380Z,3.77
2017-10-19T11:45:08.921Z,4.27
2017-10-19T11:47:37.217Z,3.80
2017-10-19T11:50:04.765Z,4.03
2017-10-19T11:52:33.090Z,4.37
2017-10-19T11:55:00.641Z,4.70
2017-10-19T11:57:29.041Z,4.07
2017-10-19T11:59:56.572Z,4.57
2017-10-19T12:02:24.886Z,3.97
2017-10-19T12:04:52.410Z,5.60
2017-10-19T12:07:19.953Z,5.93
2017-10-19T12:09:47.487Z,6.33
2017-10-19T12:12:15.010Z,4.17
2017-10-19T12:14:42.572Z,8.10
2017-10-19T12:17:10.104Z,6.07
2017-10-19T12:19:38.453Z,4.97
2017-10-19T12:22:05.985Z,3.80
2017-10-19T12:24:33.563Z,4.83
2017-10-19T12:27:01.119Z,5.77
2017-10-19T12:29:28.677Z,5.17
2017-10-19T12:31:56.238Z,4.43
2017-10-19T12:34:23.813Z,3.47
2017-10-19T12:36:51.340Z,6.17
2017-10-19T12:39:19.033Z,4.03
2017-10-19T12:41:46.606Z,5.30
2017-10-19T12:44:15.157Z,5.57
2017-10-19T12:46:42.707Z,6.20
2017-10-19T12:49:10.606Z,5.00
2017-10-19T12:51:38.182Z,4.30
2017-10-19T12:54:06.505Z,3.43
2017-10-19T12:56:34.042Z,7.20
2017-10-19T12:59:09.398Z,4.83
2017-10-19T13:01:39.383Z,6.67
2017-10-19T13:04:06.950Z,3.50
2017-10-19T13:06:34.489Z,11.03
2017-10-19T13:09:02.807Z,3.77
2017-10-19T13:11:30.368Z,3.60
2017-10-19T13:13:57.929Z,3.43
2017-10-19T13:16:25.453Z,3.93
2017-10-19T13:18:53.004Z,3.77
2017-10-19T13:21:20.524Z,3.27
2017-10-19T13:23:48.085Z,4.60
2017-10-19T13:26:15.618Z,7.47
2017-10-19T13:28:43.156Z,6.70
2017-10-19T13:31:11.472Z,3.90
2017-10-19T13:33:39.013Z,4.20
2017-10-19T13:36:06.573Z,4.73
2017-10-19T13:38:34.102Z,6.97
2017-10-19T13:41:02.418Z,3.87
2017-10-19T13:43:29.957Z,5.13
2017-10-19T13:45:57.511Z,3.43
2017-10-19T13:48:25.037Z,3.33
2017-10-19T13:50:52.602Z,3.53
2017-10-19T13:53:20.130Z,4.43
2017-10-19T13:55:47.687Z,4.27
2017-10-19T13:58:15.214Z,5.30
2017-10-19T14:00:43.533Z,6.20
2017-10-19T14:03:11.107Z,5.37
2017-10-19T14:05:38.644Z,3.57
2017-10-19T14:08:06.219Z,6.43
2017-10-19T14:10:35.972Z,4.17
2017-10-19T14:13:03.688Z,6.97
2017-10-19T14:15:31.253Z,5.73
2017-10-19T14:17:59.588Z,3.63
2017-10-19T14:33:23.644Z,3.30
2017-10-19T14:35:51.202Z,3.40
2017-10-19T14:38:19.530Z,3.27
2017-10-19T14:40:47.093Z,3.97
2017-10-19T14:43:14.637Z,3.73
2017-10-19T14:45:42.189Z,4.17
2017-10-19T14:48:09.762Z,4.10
2017-10-19T14:50:37.334Z,6.70
2017-10-19T14:53:04.878Z,4.07
2017-10-19T14:55:32.402Z,3.93
2017-10-19T14:57:59.937Z,4.00
2017-10-19T15:00:27.494Z,4.67
2017-10-19T15:02:55.055Z,7.03
2017-10-19T15:05:22.577Z,5.57
2017-10-19T15:07:50.101Z,5.90
2017-10-19T15:10:18.418Z,7.07
2017-10-19T15:12:45.946Z,4.33
2017-10-19T15:15:14.261Z,4.70
2017-10-19T15:17:41.786Z,7.27
2017-10-19T15:20:10.135Z,4.27
2017-10-19T15:22:37.674Z,5.03
2017-10-19T15:25:05.256Z,5.13
2017-10-19T15:27:32.806Z,4.10
2017-10-19T15:30:00.359Z,4.90
2017-10-19T15:32:27.886Z,8.70
2017-10-19T15:34:55.436Z,4.87
2017-10-19T15:37:23.723Z,6.20
2017-10-19T15:39:51.300Z,7.47
2017-10-19T15:42:19.587Z,6.67
2017-10-19T15:44:47.904Z,6.37
2017-10-19T15:47:15.433Z,9.23
2017-10-19T15:49:42.973Z,4.90
2017-10-19T15:52:11.368Z,8.93
2017-10-19T15:54:38.894Z,8.40
2017-10-19T15:57:06.466Z,11.60
2017-10-19T15:59:34.007Z,12.53
2017-10-19T16:02:01.547Z,6.70
2017-10-19T16:04:29.074Z,6.90
2017-10-19T16:06:57.399Z,7.40
2017-10-19T16:09:24.951Z,8.10
2017-10-19T16:11:52.478Z,7.33
2017-10-19T16:14:20.800Z,7.13
2017-10-19T16:16:48.329Z,4.83
2017-10-19T16:19:15.889Z,7.93
2017-10-19T16:21:43.425Z,4.73
2017-10-19T16:24:11.754Z,6.30
2017-10-19T16:26:39.285Z,5.43
2017-10-19T16:29:07.606Z,6.97
2017-10-19T16:31:35.153Z,6.83
2017-10-19T16:34:02.718Z,22.70
2017-10-19T16:36:30.270Z,6.47
2017-10-19T16:38:57.810Z,5.53
2017-10-19T16:41:25.376Z,7.80
2017-10-19T16:43:52.917Z,7.57
2017-10-19T16:46:20.553Z,15.20
2017-10-19T16:48:48.104Z,10.00
2017-10-19T16:51:15.680Z,11.53
2017-10-19T16:53:43.231Z,11.87
2017-10-19T16:56:10.781Z,8.17
2017-10-19T16:58:38.334Z,13.00
2017-10-19T17:01:05.885Z,9.25
2017-10-19T17:03:33.434Z,8.90
2017-10-19T17:06:01.736Z,7.53
2017-10-19T17:08:29.288Z,5.90
2017-10-19T17:10:56.824Z,6.10
2017-10-19T17:13:25.172Z,5.07
2017-10-19T17:15:52.738Z,6.17
2017-10-19T17:18:20.407Z,5.10
2017-10-19T17:20:50.036Z,3.50
2017-10-19T17:23:18.571Z,3.73
2017-10-19T17:25:46.329Z,4.10
2017-10-19T17:28:14.099Z,4.60
2017-10-19T17:30:41.958Z,3.83
2017-10-19T17:33:09.627Z,8.00
2017-10-19T17:35:37.309Z,5.93
2017-10-19T17:38:04.897Z,7.20
2017-10-19T17:40:33.323Z,3.60
2017-10-19T17:43:00.968Z,3.80
2017-10-19T17:45:28.683Z,3.83
2017-10-19T17:47:56.412Z,3.23
2017-10-19T17:50:24.279Z,5.60
2017-10-19T17:52:52.145Z,9.90
2017-10-19T17:55:20.024Z,6.47
2017-10-19T17:57:47.889Z,10.27
2017-10-19T18:00:15.753Z,9.90
2017-10-19T18:02:43.451Z,8.77
2017-10-19T18:05:11.100Z,10.30
2017-10-19T18:07:38.877Z,8.67
2017-10-19T18:10:06.502Z,12.07
2017-10-19T18:12:34.065Z,13.53
2017-10-19T18:15:02.433Z,10.67
2017-10-19T18:17:30.887Z,10.93
2017-10-19T18:19:59.325Z,12.10
2017-10-19T18:22:26.945Z,9.03
2017-10-19T18:24:54.558Z,8.40
2017-10-19T18:27:22.256Z,12.73
2017-10-19T18:29:49.906Z,9.57
2017-10-19T18:32:17.494Z,8.30
2017-10-19T18:34:46.090Z,10.20
2017-10-19T18:37:13.901Z,13.33
2017-10-19T18:39:41.766Z,9.70
2017-10-19T18:42:09.644Z,11.43
2017-10-19T18:44:38.337Z,11.00
2017-10-19T18:47:06.193Z,14.27
2017-10-19T18:49:34.203Z,9.70
2017-10-19T18:52:02.980Z,8.77
2017-10-19T18:54:30.975Z,8.87
2017-10-19T18:56:59.683Z,10.70
2017-10-19T18:59:27.734Z,10.43
2017-10-19T19:01:56.523Z,10.35
2017-10-19T19:04:24.498Z,12.37
2017-10-19T19:06:52.575Z,11.23
2017-10-19T19:09:21.352Z,7.67
2017-10-19T19:11:49.423Z,12.90
2017-10-19T19:14:17.494Z,10.97
2017-10-19T19:16:46.287Z,12.27
2017-10-19T19:19:15.278Z,12.50
2017-10-19T19:21:44.067Z,14.52
2017-10-19T19:24:12.040Z,9.83
2017-10-19T19:26:40.722Z,11.85
2017-10-19T19:29:11.046Z,13.25
2017-10-19T19:31:39.127Z,13.30
2017-10-19T19:34:07.910Z,12.32
2017-10-19T19:36:35.768Z,21.85
2017-10-19T19:39:03.788Z,14.50
2017-10-19T19:41:31.885Z,18.03
2017-10-19T19:44:00.674Z,20.77
2017-10-19T19:46:28.747Z,18.13
2017-10-19T19:48:57.519Z,17.90
2017-10-19T19:51:25.492Z,14.23
2017-10-19T19:53:54.278Z,13.20
2017-10-19T19:56:22.249Z,18.33
2017-10-19T19:58:50.228Z,15.65
2017-10-19T20:01:22.079Z,14.98
2017-10-19T20:03:50.049Z,13.80
2017-10-19T20:06:18.017Z,14.52
2017-10-19T20:08:46.736Z,14.48
2017-10-19T20:11:14.673Z,14.87
2017-10-19T20:13:42.746Z,14.20
2017-10-19T20:16:11.549Z,11.75
2017-10-19T20:18:40.325Z,14.60
2017-10-19T20:21:08.292Z,15.88
2017-10-19T20:23:36.159Z,14.10
2017-10-19T20:26:03.946Z,17.33
2017-10-19T20:28:31.534Z,17.10
2017-10-19T20:30:59.080Z,20.00
2017-10-19T20:33:26.658Z,13.70
2017-10-19T20:35:55.015Z,17.83
2017-10-19T20:38:22.590Z,17.37
2017-10-19T20:40:50.138Z,15.67
2017-10-19T20:43:17.753Z,19.25
2017-10-19T20:45:45.301Z,12.80
2017-10-19T20:48:12.904Z,18.95
2017-10-19T20:50:40.478Z,13.13
2017-10-19T20:53:08.062Z,13.38
2017-10-19T20:55:36.381Z,14.07
2017-10-19T20:58:03.938Z,19.17
2017-10-19T21:00:31.549Z,15.90
2017-10-19T21:02:59.881Z,13.27
2017-10-19T21:05:27.425Z,14.57
2017-10-19T21:07:56.095Z,14.30
2017-10-19T21:10:24.405Z,11.50
2017-10-19T21:12:51.975Z,14.27
2017-10-19T21:15:19.630Z,11.45
2017-10-19T21:17:47.197Z,10.48
2017-10-19T21:20:14.760Z,13.43
2017-10-19T21:22:42.325Z,11.50
2017-10-19T21:25:09.860Z,10.73
2017-10-19T21:27:37.419Z,11.90
2017-10-19T21:30:04.953Z,12.23
2017-10-19T21:32:32.508Z,10.10
2017-10-19T21:35:00.068Z,10.18
2017-10-19T21:37:27.601Z,16.73
2017-10-19T21:39:55.157Z,14.73
2017-10-19T21:42:22.734Z,10.05
2017-10-19T21:44:50.281Z,14.23
2017-10-19T21:47:17.936Z,15.43
2017-10-19T21:49:45.469Z,11.07
2017-10-19T21:52:13.803Z,12.10
2017-10-19T21:54:41.366Z,17.77
2017-10-19T21:57:08.929Z,11.40
2017-10-19T21:59:36.473Z,10.85
2017-10-19T22:02:04.029Z,9.48
2017-10-19T22:04:31.585Z,11.93
2017-10-19T22:06:59.118Z,8.43
2017-10-19T22:09:27.441Z,7.95
2017-10-19T22:11:55.001Z,10.73
2017-10-19T22:14:22.549Z,7.22
2017-10-19T22:16:50.111Z,7.05
2017-10-19T22:19:17.661Z,6.90
2017-10-19T22:21:45.217Z,7.25
2017-10-19T22:24:12.770Z,12.70
2017-10-19T22:26:40.309Z,9.00
2017-10-19T22:29:07.855Z,6.40
2017-10-19T22:31:36.173Z,12.93
2017-10-19T22:34:03.731Z,9.98
2017-10-19T22:36:31.265Z,9.20
2017-10-19T22:38:58.800Z,13.73
2017-10-19T22:41:27.123Z,10.18
2017-10-19T22:43:54.661Z,10.02
2017-10-19T22:46:22.212Z,9.85
2017-10-19T22:48:50.833Z,11.82
2017-10-19T22:51:18.432Z,9.68
2017-10-19T22:53:45.966Z,13.23
2017-10-19T22:56:13.489Z,12.73
2017-10-19T22:58:41.049Z,9.43
2017-10-19T23:01:08.601Z,8.98
2017-10-19T23:03:36.923Z,9.75
2017-10-19T23:06:04.449Z,8.80
2017-10-19T23:08:32.038Z,13.23
2017-10-19T23:10:59.594Z,10.43
2017-10-19T23:13:27.252Z,9.65
2017-10-19T23:15:54.785Z,13.50
2017-10-19T23:18:22.334Z,8.90
2017-10-19T23:20:50.750Z,12.00
2017-10-19T23:23:18.289Z,11.77
2017-10-19T23:25:45.833Z,8.57
2017-10-19T23:28:14.123Z,12.20
2017-10-19T23:30:41.681Z,10.57
2017-10-19T23:33:09.241Z,12.85
2017-10-19T23:35:36.777Z,12.20
2017-10-19T23:38:05.100Z,8.00
2017-10-19T23:40:32.650Z,9.35
2017-10-19T23:43:00.176Z,8.10
2017-10-19T23:45:28.527Z,8.85
2017-10-19T23:47:56.078Z,9.25
2017-10-19T23:50:23.645Z,11.12
2017-10-19T23:52:51.180Z,7.75
2017-10-19T23:55:18.725Z,11.15
2017-10-19T23:57:46.253Z,8.88
